sensor_id;sensor_type;location;lat;lon;timestamp;temperature;humidity
20672;DHT22;10495;50.922;4.760;2023-07-13T00:02:23;18.60;63.30
20672;DHT22;10495;50.922;4.760;2023-07-13T00:04:48;18.50;63.70
20672;DHT22;10495;50.922;4.760;2023-07-13T00:07:14;18.50;63.90
20672;DHT22;10495;50.922;4.760;2023-07-13T00:09:40;18.50;64.10
20672;DHT22;10495;50.922;4.760;2023-07-13T00:12:23;18.40;64.80
20672;DHT22;10495;50.922;4.760;2023-07-13T00:14:49;18.40;65.30
20672;DHT22;10495;50.922;4.760;2023-07-13T00:17:15;18.40;65.30
20672;DHT22;10495;50.922;4.760;2023-07-13T00:19:41;18.40;65.50
20672;DHT22;10495;50.922;4.760;2023-07-13T00:22:06;18.20;66.00
20672;DHT22;10495;50.922;4.760;2023-07-13T00:24:32;18.20;66.40
20672;DHT22;10495;50.922;4.760;2023-07-13T00:26:58;18.30;66.50
20672;DHT22;10495;50.922;4.760;2023-07-13T00:29:25;18.30;66.90
20672;DHT22;10495;50.922;4.760;2023-07-13T00:31:50;18.20;66.60
20672;DHT22;10495;50.922;4.760;2023-07-13T00:34:16;18.20;67.00
20672;DHT22;10495;50.922;4.760;2023-07-13T00:36:42;18.10;67.80
20672;DHT22;10495;50.922;4.760;2023-07-13T00:39:08;18.00;68.30
20672;DHT22;10495;50.922;4.760;2023-07-13T00:41:34;17.90;68.80
20672;DHT22;10495;50.922;4.760;2023-07-13T00:43:59;18.00;68.70
20672;DHT22;10495;50.922;4.760;2023-07-13T00:46:30;17.80;69.50
20672;DHT22;10495;50.922;4.760;2023-07-13T00:49:00;17.90;69.70
20672;DHT22;10495;50.922;4.760;2023-07-13T00:54:19;18.00;69.40
20672;DHT22;10495;50.922;4.760;2023-07-13T00:56:48;17.90;69.80
20672;DHT22;10495;50.922;4.760;2023-07-13T00:59:15;17.80;70.00
20672;DHT22;10495;50.922;4.760;2023-07-13T01:01:42;17.90;70.10
20672;DHT22;10495;50.922;4.760;2023-07-13T01:04:08;17.90;70.80
20672;DHT22;10495;50.922;4.760;2023-07-13T01:06:37;17.80;70.30
20672;DHT22;10495;50.922;4.760;2023-07-13T01:09:04;17.80;70.40
20672;DHT22;10495;50.922;4.760;2023-07-13T01:11:30;17.80;70.70
20672;DHT22;10495;50.922;4.760;2023-07-13T01:13:56;17.90;70.80
20672;DHT22;10495;50.922;4.760;2023-07-13T01:16:35;17.80;71.00
20672;DHT22;10495;50.922;4.760;2023-07-13T01:19:04;17.70;71.30
20672;DHT22;10495;50.922;4.760;2023-07-13T01:21:34;17.70;71.80
20672;DHT22;10495;50.922;4.760;2023-07-13T01:24:00;17.70;71.90
20672;DHT22;10495;50.922;4.760;2023-07-13T01:26:27;17.70;72.10
20672;DHT22;10495;50.922;4.760;2023-07-13T01:28:53;17.60;72.80
20672;DHT22;10495;50.922;4.760;2023-07-13T01:31:18;17.50;73.50
20672;DHT22;10495;50.922;4.760;2023-07-13T01:33:44;17.50;74.20
20672;DHT22;10495;50.922;4.760;2023-07-13T01:36:11;17.50;74.10
20672;DHT22;10495;50.922;4.760;2023-07-13T01:38:37;17.50;74.20
20672;DHT22;10495;50.922;4.760;2023-07-13T01:41:03;17.40;74.40
20672;DHT22;10495;50.922;4.760;2023-07-13T01:43:29;17.40;74.50
20672;DHT22;10495;50.922;4.760;2023-07-13T01:45:55;17.50;74.60
20672;DHT22;10495;50.922;4.760;2023-07-13T01:48:20;17.50;74.80
20672;DHT22;10495;50.922;4.760;2023-07-13T01:50:47;17.40;75.10
20672;DHT22;10495;50.922;4.760;2023-07-13T01:53:13;17.40;75.80
20672;DHT22;10495;50.922;4.760;2023-07-13T01:55:39;17.40;75.90
20672;DHT22;10495;50.922;4.760;2023-07-13T01:58:05;17.30;76.70
20672;DHT22;10495;50.922;4.760;2023-07-13T02:00:31;17.30;76.50
20672;DHT22;10495;50.922;4.760;2023-07-13T02:02:57;17.30;76.70
20672;DHT22;10495;50.922;4.760;2023-07-13T02:05:23;17.40;76.30
20672;DHT22;10495;50.922;4.760;2023-07-13T02:07:48;17.40;76.30
20672;DHT22;10495;50.922;4.760;2023-07-13T02:10:14;17.50;76.40
20672;DHT22;10495;50.922;4.760;2023-07-13T02:12:41;17.40;76.40
20672;DHT22;10495;50.922;4.760;2023-07-13T02:15:07;17.40;76.60
20672;DHT22;10495;50.922;4.760;2023-07-13T02:17:34;17.30;77.20
20672;DHT22;10495;50.922;4.760;2023-07-13T02:20:01;17.30;77.30
20672;DHT22;10495;50.922;4.760;2023-07-13T02:22:27;17.30;77.50
20672;DHT22;10495;50.922;4.760;2023-07-13T02:24:53;17.30;77.40
20672;DHT22;10495;50.922;4.760;2023-07-13T02:27:19;17.30;77.70
20672;DHT22;10495;50.922;4.760;2023-07-13T02:29:44;17.30;78.10
20672;DHT22;10495;50.922;4.760;2023-07-13T02:32:10;17.30;78.30
20672;DHT22;10495;50.922;4.760;2023-07-13T02:34:36;17.40;78.00
20672;DHT22;10495;50.922;4.760;2023-07-13T02:37:01;17.50;78.50
20672;DHT22;10495;50.922;4.760;2023-07-13T02:39:27;17.50;78.50
20672;DHT22;10495;50.922;4.760;2023-07-13T02:41:52;17.50;78.70
20672;DHT22;10495;50.922;4.760;2023-07-13T02:44:18;17.60;78.50
20672;DHT22;10495;50.922;4.760;2023-07-13T02:46:44;17.60;78.80
20672;DHT22;10495;50.922;4.760;2023-07-13T02:49:10;17.60;78.80
20672;DHT22;10495;50.922;4.760;2023-07-13T02:51:36;17.70;78.80
20672;DHT22;10495;50.922;4.760;2023-07-13T02:54:02;17.70;78.60
20672;DHT22;10495;50.922;4.760;2023-07-13T02:56:30;17.80;78.40
20672;DHT22;10495;50.922;4.760;2023-07-13T02:58:56;17.80;78.40
20672;DHT22;10495;50.922;4.760;2023-07-13T03:01:22;17.80;78.20
20672;DHT22;10495;50.922;4.760;2023-07-13T03:03:49;17.70;78.50
20672;DHT22;10495;50.922;4.760;2023-07-13T03:06:16;17.60;79.00
20672;DHT22;10495;50.922;4.760;2023-07-13T03:08:43;17.70;78.80
20672;DHT22;10495;50.922;4.760;2023-07-13T03:11:14;17.70;79.00
20672;DHT22;10495;50.922;4.760;2023-07-13T03:13:41;17.80;79.00
20672;DHT22;10495;50.922;4.760;2023-07-13T03:16:08;17.60;79.40
20672;DHT22;10495;50.922;4.760;2023-07-13T03:18:35;17.70;79.00
20672;DHT22;10495;50.922;4.760;2023-07-13T03:21:01;17.60;79.60
20672;DHT22;10495;50.922;4.760;2023-07-13T03:23:27;17.50;79.90
20672;DHT22;10495;50.922;4.760;2023-07-13T03:26:10;17.40;80.20
20672;DHT22;10495;50.922;4.760;2023-07-13T03:28:36;17.40;80.50
20672;DHT22;10495;50.922;4.760;2023-07-13T03:31:08;17.40;80.40
20672;DHT22;10495;50.922;4.760;2023-07-13T03:33:35;17.50;80.30
20672;DHT22;10495;50.922;4.760;2023-07-13T03:36:01;17.60;80.20
20672;DHT22;10495;50.922;4.760;2023-07-13T03:38:27;17.70;80.00
20672;DHT22;10495;50.922;4.760;2023-07-13T03:40:53;17.70;80.00
20672;DHT22;10495;50.922;4.760;2023-07-13T03:43:18;17.50;80.60
20672;DHT22;10495;50.922;4.760;2023-07-13T03:45:46;17.60;80.50
20672;DHT22;10495;50.922;4.760;2023-07-13T03:48:12;17.70;80.30
20672;DHT22;10495;50.922;4.760;2023-07-13T03:50:37;17.70;80.10
20672;DHT22;10495;50.922;4.760;2023-07-13T03:53:04;17.70;80.50
20672;DHT22;10495;50.922;4.760;2023-07-13T03:55:30;17.60;80.80
20672;DHT22;10495;50.922;4.760;2023-07-13T04:00:50;17.60;80.80
20672;DHT22;10495;50.922;4.760;2023-07-13T04:03:15;17.60;81.00
20672;DHT22;10495;50.922;4.760;2023-07-13T04:05:41;17.70;80.50
20672;DHT22;10495;50.922;4.760;2023-07-13T04:08:07;17.80;80.20
20672;DHT22;10495;50.922;4.760;2023-07-13T04:10:33;17.60;80.60
20672;DHT22;10495;50.922;4.760;2023-07-13T04:12:58;17.80;80.70
20672;DHT22;10495;50.922;4.760;2023-07-13T04:15:24;17.70;81.00
20672;DHT22;10495;50.922;4.760;2023-07-13T04:17:50;17.80;80.70
20672;DHT22;10495;50.922;4.760;2023-07-13T04:20:15;17.90;80.50
20672;DHT22;10495;50.922;4.760;2023-07-13T04:22:41;17.80;80.60
20672;DHT22;10495;50.922;4.760;2023-07-13T04:25:07;17.80;80.40
20672;DHT22;10495;50.922;4.760;2023-07-13T04:27:32;17.80;80.60
20672;DHT22;10495;50.922;4.760;2023-07-13T04:29:58;17.80;80.60
20672;DHT22;10495;50.922;4.760;2023-07-13T04:32:23;17.70;80.90
20672;DHT22;10495;50.922;4.760;2023-07-13T04:34:49;17.80;81.20
20672;DHT22;10495;50.922;4.760;2023-07-13T04:37:20;17.80;81.20
20672;DHT22;10495;50.922;4.760;2023-07-13T04:39:46;17.90;80.90
20672;DHT22;10495;50.922;4.760;2023-07-13T04:42:11;17.90;80.90
20672;DHT22;10495;50.922;4.760;2023-07-13T04:44:37;18.00;80.70
20672;DHT22;10495;50.922;4.760;2023-07-13T04:47:03;18.00;80.80
20672;DHT22;10495;50.922;4.760;2023-07-13T04:49:28;18.00;81.00
20672;DHT22;10495;50.922;4.760;2023-07-13T04:51:54;18.10;81.20
20672;DHT22;10495;50.922;4.760;2023-07-13T04:54:20;18.20;81.00
20672;DHT22;10495;50.922;4.760;2023-07-13T04:56:46;18.30;80.40
20672;DHT22;10495;50.922;4.760;2023-07-13T04:59:12;18.20;80.70
20672;DHT22;10495;50.922;4.760;2023-07-13T05:01:37;18.10;80.80
20672;DHT22;10495;50.922;4.760;2023-07-13T05:04:03;18.20;81.20
20672;DHT22;10495;50.922;4.760;2023-07-13T05:06:28;18.10;81.00
20672;DHT22;10495;50.922;4.760;2023-07-13T05:08:55;18.10;81.30
20672;DHT22;10495;50.922;4.760;2023-07-13T05:11:21;18.10;81.40
20672;DHT22;10495;50.922;4.760;2023-07-13T05:13:47;18.10;81.90
20672;DHT22;10495;50.922;4.760;2023-07-13T05:16:12;18.10;81.70
20672;DHT22;10495;50.922;4.760;2023-07-13T05:18:38;18.10;81.90
20672;DHT22;10495;50.922;4.760;2023-07-13T05:21:07;18.20;81.90
20672;DHT22;10495;50.922;4.760;2023-07-13T05:23:34;18.30;81.90
20672;DHT22;10495;50.922;4.760;2023-07-13T05:26:01;18.20;82.10
20672;DHT22;10495;50.922;4.760;2023-07-13T05:28:27;18.20;82.30
20672;DHT22;10495;50.922;4.760;2023-07-13T05:30:54;18.20;82.10
20672;DHT22;10495;50.922;4.760;2023-07-13T05:33:20;18.60;81.50
20672;DHT22;10495;50.922;4.760;2023-07-13T05:35:46;18.60;81.20
20672;DHT22;10495;50.922;4.760;2023-07-13T05:38:11;18.60;81.40
20672;DHT22;10495;50.922;4.760;2023-07-13T05:40:37;18.60;81.00
20672;DHT22;10495;50.922;4.760;2023-07-13T05:43:03;18.70;81.40
20672;DHT22;10495;50.922;4.760;2023-07-13T05:45:28;18.80;81.40
20672;DHT22;10495;50.922;4.760;2023-07-13T05:47:54;18.80;81.60
20672;DHT22;10495;50.922;4.760;2023-07-13T05:50:20;18.90;81.90
20672;DHT22;10495;50.922;4.760;2023-07-13T05:52:46;18.90;81.30
20672;DHT22;10495;50.922;4.760;2023-07-13T05:55:12;19.00;81.20
20672;DHT22;10495;50.922;4.760;2023-07-13T05:57:38;19.10;80.80
20672;DHT22;10495;50.922;4.760;2023-07-13T06:00:04;19.40;80.40
20672;DHT22;10495;50.922;4.760;2023-07-13T06:02:30;19.50;80.40
20672;DHT22;10495;50.922;4.760;2023-07-13T06:04:55;19.30;80.10
20672;DHT22;10495;50.922;4.760;2023-07-13T06:07:21;19.20;80.20
20672;DHT22;10495;50.922;4.760;2023-07-13T06:09:47;19.30;80.30
20672;DHT22;10495;50.922;4.760;2023-07-13T06:12:12;19.30;80.30
20672;DHT22;10495;50.922;4.760;2023-07-13T06:14:38;19.40;80.10
20672;DHT22;10495;50.922;4.760;2023-07-13T06:17:04;19.50;80.30
20672;DHT22;10495;50.922;4.760;2023-07-13T06:19:29;19.50;80.10
20672;DHT22;10495;50.922;4.760;2023-07-13T06:21:55;19.50;80.50
20672;DHT22;10495;50.922;4.760;2023-07-13T06:24:21;19.50;79.90
20672;DHT22;10495;50.922;4.760;2023-07-13T06:26:47;19.50;80.00
20672;DHT22;10495;50.922;4.760;2023-07-13T06:29:12;19.70;79.60
20672;DHT22;10495;50.922;4.760;2023-07-13T06:31:38;19.70;79.00
20672;DHT22;10495;50.922;4.760;2023-07-13T06:34:03;19.60;79.30
20672;DHT22;10495;50.922;4.760;2023-07-13T06:36:29;19.60;79.40
20672;DHT22;10495;50.922;4.760;2023-07-13T06:38:54;19.70;79.40
20672;DHT22;10495;50.922;4.760;2023-07-13T06:41:20;19.90;79.20
20672;DHT22;10495;50.922;4.760;2023-07-13T06:43:47;19.80;79.10
20672;DHT22;10495;50.922;4.760;2023-07-13T06:46:13;19.80;79.60
20672;DHT22;10495;50.922;4.760;2023-07-13T06:48:38;19.90;79.20
20672;DHT22;10495;50.922;4.760;2023-07-13T06:51:04;20.00;79.10
20672;DHT22;10495;50.922;4.760;2023-07-13T06:53:29;20.20;79.00
20672;DHT22;10495;50.922;4.760;2023-07-13T06:55:55;20.10;78.80
20672;DHT22;10495;50.922;4.760;2023-07-13T06:58:21;20.30;78.90
20672;DHT22;10495;50.922;4.760;2023-07-13T07:00:50;20.50;78.30
20672;DHT22;10495;50.922;4.760;2023-07-13T07:03:17;20.50;78.60
20672;DHT22;10495;50.922;4.760;2023-07-13T07:05:42;20.60;78.00
20672;DHT22;10495;50.922;4.760;2023-07-13T07:08:08;20.70;77.70
20672;DHT22;10495;50.922;4.760;2023-07-13T07:10:35;20.70;77.80
20672;DHT22;10495;50.922;4.760;2023-07-13T07:13:00;20.80;78.00
20672;DHT22;10495;50.922;4.760;2023-07-13T07:15:26;21.00;76.70
20672;DHT22;10495;50.922;4.760;2023-07-13T07:17:52;21.30;76.90
20672;DHT22;10495;50.922;4.760;2023-07-13T07:20:18;21.50;76.70
20672;DHT22;10495;50.922;4.760;2023-07-13T07:22:44;21.60;75.90
20672;DHT22;10495;50.922;4.760;2023-07-13T07:25:09;21.70;74.60
20672;DHT22;10495;50.922;4.760;2023-07-13T07:27:35;21.60;76.10
20672;DHT22;10495;50.922;4.760;2023-07-13T07:30:01;22.00;74.60
20672;DHT22;10495;50.922;4.760;2023-07-13T07:32:28;22.10;73.60
20672;DHT22;10495;50.922;4.760;2023-07-13T07:34:54;22.10;73.30
20672;DHT22;10495;50.922;4.760;2023-07-13T07:37:19;22.20;73.40
20672;DHT22;10495;50.922;4.760;2023-07-13T07:39:45;22.50;73.00
20672;DHT22;10495;50.922;4.760;2023-07-13T07:42:10;22.60;73.60
20672;DHT22;10495;50.922;4.760;2023-07-13T07:44:38;22.70;71.90
20672;DHT22;10495;50.922;4.760;2023-07-13T07:47:04;22.80;70.30
20672;DHT22;10495;50.922;4.760;2023-07-13T07:49:29;22.90;71.00
20672;DHT22;10495;50.922;4.760;2023-07-13T07:51:55;22.90;71.30
20672;DHT22;10495;50.922;4.760;2023-07-13T07:54:20;22.90;71.20
20672;DHT22;10495;50.922;4.760;2023-07-13T07:56:46;23.10;70.60
20672;DHT22;10495;50.922;4.760;2023-07-13T07:59:11;23.20;69.00
20672;DHT22;10495;50.922;4.760;2023-07-13T08:01:37;23.30;68.20
20672;DHT22;10495;50.922;4.760;2023-07-13T08:04:03;23.00;68.80
20672;DHT22;10495;50.922;4.760;2023-07-13T08:06:28;23.10;70.10
20672;DHT22;10495;50.922;4.760;2023-07-13T08:08:55;23.30;69.30
20672;DHT22;10495;50.922;4.760;2023-07-13T08:11:21;23.60;68.30
20672;DHT22;10495;50.922;4.760;2023-07-13T08:13:47;23.80;67.90
20672;DHT22;10495;50.922;4.760;2023-07-13T08:16:13;24.20;67.10
20672;DHT22;10495;50.922;4.760;2023-07-13T08:18:39;24.30;65.50
20672;DHT22;10495;50.922;4.760;2023-07-13T08:21:06;24.50;65.20
20672;DHT22;10495;50.922;4.760;2023-07-13T08:23:31;24.50;62.70
20672;DHT22;10495;50.922;4.760;2023-07-13T08:25:57;24.30;63.80
20672;DHT22;10495;50.922;4.760;2023-07-13T08:28:24;24.30;64.80
20672;DHT22;10495;50.922;4.760;2023-07-13T08:30:49;24.30;65.40
20672;DHT22;10495;50.922;4.760;2023-07-13T08:33:17;24.90;62.80
20672;DHT22;10495;50.922;4.760;2023-07-13T08:35:48;25.10;63.10
20672;DHT22;10495;50.922;4.760;2023-07-13T08:38:15;25.30;63.00
20672;DHT22;10495;50.922;4.760;2023-07-13T08:40:42;25.70;62.30
20672;DHT22;10495;50.922;4.760;2023-07-13T08:43:16;25.90;60.20
20672;DHT22;10495;50.922;4.760;2023-07-13T08:45:46;25.90;61.20
20672;DHT22;10495;50.922;4.760;2023-07-13T08:48:38;26.10;62.90
20672;DHT22;10495;50.922;4.760;2023-07-13T08:56:45;27.60;58.60
20672;DHT22;10495;50.922;4.760;2023-07-13T08:59:14;28.00;57.80
20672;DHT22;10495;50.922;4.760;2023-07-13T09:04:16;28.40;57.70
20672;DHT22;10495;50.922;4.760;2023-07-13T09:07:05;28.40;56.80
20672;DHT22;10495;50.922;4.760;2023-07-13T09:09:48;28.30;57.70
20672;DHT22;10495;50.922;4.760;2023-07-13T09:14:59;28.70;57.20
20672;DHT22;10495;50.922;4.760;2023-07-13T09:17:37;28.70;56.60
20672;DHT22;10495;50.922;4.760;2023-07-13T09:22:52;28.90;56.00
20672;DHT22;10495;50.922;4.760;2023-07-13T09:25:27;29.10;55.10
20672;DHT22;10495;50.922;4.760;2023-07-13T09:28:02;29.10;55.30
20672;DHT22;10495;50.922;4.760;2023-07-13T09:30:40;29.20;55.50
20672;DHT22;10495;50.922;4.760;2023-07-13T09:33:09;29.60;54.50
20672;DHT22;10495;50.922;4.760;2023-07-13T09:35:35;29.50;54.20
20672;DHT22;10495;50.922;4.760;2023-07-13T09:38:13;30.10;54.60
20672;DHT22;10495;50.922;4.760;2023-07-13T09:43:18;30.10;53.10
20672;DHT22;10495;50.922;4.760;2023-07-13T09:45:46;29.90;53.10
20672;DHT22;10495;50.922;4.760;2023-07-13T09:48:14;29.70;53.60
20672;DHT22;10495;50.922;4.760;2023-07-13T09:50:41;29.70;53.40
20672;DHT22;10495;50.922;4.760;2023-07-13T09:53:18;29.80;53.60
20672;DHT22;10495;50.922;4.760;2023-07-13T09:55:48;29.40;53.70
20672;DHT22;10495;50.922;4.760;2023-07-13T09:58:21;29.40;53.20
20672;DHT22;10495;50.922;4.760;2023-07-13T10:03:23;28.30;53.50
20672;DHT22;10495;50.922;4.760;2023-07-13T10:05:51;28.00;53.70
20672;DHT22;10495;50.922;4.760;2023-07-13T10:08:25;27.80;54.20
20672;DHT22;10495;50.922;4.760;2023-07-13T10:11:00;28.20;55.00
20672;DHT22;10495;50.922;4.760;2023-07-13T10:13:34;28.00;53.70
20672;DHT22;10495;50.922;4.760;2023-07-13T10:16:03;28.40;54.50
20672;DHT22;10495;50.922;4.760;2023-07-13T10:18:39;28.80;54.30
20672;DHT22;10495;50.922;4.760;2023-07-13T10:21:20;29.40;54.20
20672;DHT22;10495;50.922;4.760;2023-07-13T10:23:56;29.80;52.80
20672;DHT22;10495;50.922;4.760;2023-07-13T10:26:31;30.00;53.20
20672;DHT22;10495;50.922;4.760;2023-07-13T10:29:03;30.30;53.00
20672;DHT22;10495;50.922;4.760;2023-07-13T10:31:40;30.40;53.30
20672;DHT22;10495;50.922;4.760;2023-07-13T10:34:12;30.70;54.00
20672;DHT22;10495;50.922;4.760;2023-07-13T10:36:46;30.90;53.40
20672;DHT22;10495;50.922;4.760;2023-07-13T10:39:26;31.00;52.30
20672;DHT22;10495;50.922;4.760;2023-07-13T10:41:57;30.90;51.90
20672;DHT22;10495;50.922;4.760;2023-07-13T10:44:30;30.10;51.70
20672;DHT22;10495;50.922;4.760;2023-07-13T10:46:59;29.70;52.90
20672;DHT22;10495;50.922;4.760;2023-07-13T10:49:28;29.60;53.00
20672;DHT22;10495;50.922;4.760;2023-07-13T10:51:55;29.60;52.20
20672;DHT22;10495;50.922;4.760;2023-07-13T10:54:26;29.20;51.50
20672;DHT22;10495;50.922;4.760;2023-07-13T10:59:38;28.90;52.50
20672;DHT22;10495;50.922;4.760;2023-07-13T11:04:48;28.40;52.70
20672;DHT22;10495;50.922;4.760;2023-07-13T11:07:21;28.30;52.80
20672;DHT22;10495;50.922;4.760;2023-07-13T11:09:50;28.00;52.00
20672;DHT22;10495;50.922;4.760;2023-07-13T11:28:04;27.10;52.90
20672;DHT22;10495;50.922;4.760;2023-07-13T11:30:36;27.20;52.80
20672;DHT22;10495;50.922;4.760;2023-07-13T11:35:36;26.80;52.80
20672;DHT22;10495;50.922;4.760;2023-07-13T11:38:24;26.90;53.00
20672;DHT22;10495;50.922;4.760;2023-07-13T11:40:54;26.80;53.00
20672;DHT22;10495;50.922;4.760;2023-07-13T11:43:21;26.40;53.00
20672;DHT22;10495;50.922;4.760;2023-07-13T11:45:49;26.40;53.20
20672;DHT22;10495;50.922;4.760;2023-07-13T11:48:34;26.50;52.40
20672;DHT22;10495;50.922;4.760;2023-07-13T11:51:04;26.40;52.70
20672;DHT22;10495;50.922;4.760;2023-07-13T11:53:46;26.10;53.10
20672;DHT22;10495;50.922;4.760;2023-07-13T11:56:12;26.20;53.10
20672;DHT22;10495;50.922;4.760;2023-07-13T11:58:39;26.10;53.20
20672;DHT22;10495;50.922;4.760;2023-07-13T12:01:05;26.10;53.00
20672;DHT22;10495;50.922;4.760;2023-07-13T12:03:32;26.30;52.50
20672;DHT22;10495;50.922;4.760;2023-07-13T12:06:05;26.10;52.30
20672;DHT22;10495;50.922;4.760;2023-07-13T12:08:31;26.30;53.10
20672;DHT22;10495;50.922;4.760;2023-07-13T12:11:16;26.40;52.40
20672;DHT22;10495;50.922;4.760;2023-07-13T12:13:44;26.20;52.10
20672;DHT22;10495;50.922;4.760;2023-07-13T12:16:28;26.10;52.00
20672;DHT22;10495;50.922;4.760;2023-07-13T12:18:55;26.20;52.30
20672;DHT22;10495;50.922;4.760;2023-07-13T12:21:33;26.20;52.50
20672;DHT22;10495;50.922;4.760;2023-07-13T12:24:00;26.00;53.50
20672;DHT22;10495;50.922;4.760;2023-07-13T12:26:29;26.10;55.90
20672;DHT22;10495;50.922;4.760;2023-07-13T12:28:56;25.90;55.50
20672;DHT22;10495;50.922;4.760;2023-07-13T12:34:11;25.30;55.60
20672;DHT22;10495;50.922;4.760;2023-07-13T12:36:41;25.30;56.10
20672;DHT22;10495;50.922;4.760;2023-07-13T12:39:35;25.10;56.30
20672;DHT22;10495;50.922;4.760;2023-07-13T12:42:33;24.80;55.70
20672;DHT22;10495;50.922;4.760;2023-07-13T12:45:23;24.60;57.00
20672;DHT22;10495;50.922;4.760;2023-07-13T12:47:53;24.70;56.60
20672;DHT22;10495;50.922;4.760;2023-07-13T12:50:22;23.60;57.50
20672;DHT22;10495;50.922;4.760;2023-07-13T12:53:05;23.30;58.70
20672;DHT22;10495;50.922;4.760;2023-07-13T12:55:41;23.30;59.80
20672;DHT22;10495;50.922;4.760;2023-07-13T12:58:17;23.00;60.00
20672;DHT22;10495;50.922;4.760;2023-07-13T13:00:48;22.70;61.00
20672;DHT22;10495;50.922;4.760;2023-07-13T13:05:49;22.60;65.00
20672;DHT22;10495;50.922;4.760;2023-07-13T13:08:15;22.70;63.70
20672;DHT22;10495;50.922;4.760;2023-07-13T13:10:41;22.90;63.60
20672;DHT22;10495;50.922;4.760;2023-07-13T13:13:06;23.10;63.70
20672;DHT22;10495;50.922;4.760;2023-07-13T13:15:34;23.20;63.50
20672;DHT22;10495;50.922;4.760;2023-07-13T13:18:01;23.30;61.40
20672;DHT22;10495;50.922;4.760;2023-07-13T13:20:26;23.30;62.70
20672;DHT22;10495;50.922;4.760;2023-07-13T13:22:52;23.40;61.60
20672;DHT22;10495;50.922;4.760;2023-07-13T13:25:19;23.30;63.40
20672;DHT22;10495;50.922;4.760;2023-07-13T13:27:45;23.10;65.70
20672;DHT22;10495;50.922;4.760;2023-07-13T13:30:13;23.00;66.00
20672;DHT22;10495;50.922;4.760;2023-07-13T13:32:40;23.00;65.50
20672;DHT22;10495;50.922;4.760;2023-07-13T13:35:13;22.90;65.10
20672;DHT22;10495;50.922;4.760;2023-07-13T13:37:39;22.70;66.20
20672;DHT22;10495;50.922;4.760;2023-07-13T13:40:17;22.70;66.70
20672;DHT22;10495;50.922;4.760;2023-07-13T13:42:43;22.70;66.80
20672;DHT22;10495;50.922;4.760;2023-07-13T13:45:10;22.70;67.00
20672;DHT22;10495;50.922;4.760;2023-07-13T13:47:36;22.80;66.80
20672;DHT22;10495;50.922;4.760;2023-07-13T13:50:12;22.70;67.30
20672;DHT22;10495;50.922;4.760;2023-07-13T13:52:40;22.70;67.80
20672;DHT22;10495;50.922;4.760;2023-07-13T13:55:17;22.70;68.20
20672;DHT22;10495;50.922;4.760;2023-07-13T13:57:47;22.90;68.20
20672;DHT22;10495;50.922;4.760;2023-07-13T14:00:14;22.80;68.30
20672;DHT22;10495;50.922;4.760;2023-07-13T14:02:44;23.00;68.20
20672;DHT22;10495;50.922;4.760;2023-07-13T14:05:14;23.10;68.00
20672;DHT22;10495;50.922;4.760;2023-07-13T14:07:41;23.20;68.10
20672;DHT22;10495;50.922;4.760;2023-07-13T14:10:14;23.40;67.40
20672;DHT22;10495;50.922;4.760;2023-07-13T14:12:43;23.20;66.20
20672;DHT22;10495;50.922;4.760;2023-07-13T14:15:30;23.30;66.90
20672;DHT22;10495;50.922;4.760;2023-07-13T14:18:00;23.40;65.20
20672;DHT22;10495;50.922;4.760;2023-07-13T14:20:26;23.60;66.30
20672;DHT22;10495;50.922;4.760;2023-07-13T14:22:52;23.80;65.30
20672;DHT22;10495;50.922;4.760;2023-07-13T14:25:19;23.70;63.20
20672;DHT22;10495;50.922;4.760;2023-07-13T14:27:48;23.90;63.00
20672;DHT22;10495;50.922;4.760;2023-07-13T14:30:17;24.10;63.00
20672;DHT22;10495;50.922;4.760;2023-07-13T14:32:42;24.40;60.70
20672;DHT22;10495;50.922;4.760;2023-07-13T14:35:11;24.60;59.40
20672;DHT22;10495;50.922;4.760;2023-07-13T14:37:39;24.70;59.10
20672;DHT22;10495;50.922;4.760;2023-07-13T14:42:38;24.80;58.90
20672;DHT22;10495;50.922;4.760;2023-07-13T14:45:03;25.00;58.30
20672;DHT22;10495;50.922;4.760;2023-07-13T14:47:29;25.20;58.10
20672;DHT22;10495;50.922;4.760;2023-07-13T14:49:55;25.30;57.90
20672;DHT22;10495;50.922;4.760;2023-07-13T14:52:23;25.30;57.60
20672;DHT22;10495;50.922;4.760;2023-07-13T14:54:49;25.30;58.30
20672;DHT22;10495;50.922;4.760;2023-07-13T14:57:17;25.50;56.90
20672;DHT22;10495;50.922;4.760;2023-07-13T14:59:43;25.50;57.10
20672;DHT22;10495;50.922;4.760;2023-07-13T15:02:19;25.60;56.60
20672;DHT22;10495;50.922;4.760;2023-07-13T15:04:46;25.70;57.20
20672;DHT22;10495;50.922;4.760;2023-07-13T15:07:12;25.80;56.80
20672;DHT22;10495;50.922;4.760;2023-07-13T15:09:41;25.80;56.20
20672;DHT22;10495;50.922;4.760;2023-07-13T15:12:07;25.90;55.70
20672;DHT22;10495;50.922;4.760;2023-07-13T15:14:33;26.10;55.70
20672;DHT22;10495;50.922;4.760;2023-07-13T15:16:59;25.80;55.50
20672;DHT22;10495;50.922;4.760;2023-07-13T15:19:25;25.80;55.60
20672;DHT22;10495;50.922;4.760;2023-07-13T15:21:53;25.60;56.10
20672;DHT22;10495;50.922;4.760;2023-07-13T15:24:23;25.40;56.20
20672;DHT22;10495;50.922;4.760;2023-07-13T15:26:49;25.40;56.20
20672;DHT22;10495;50.922;4.760;2023-07-13T15:29:16;25.40;56.20
20672;DHT22;10495;50.922;4.760;2023-07-13T15:31:42;25.60;56.40
20672;DHT22;10495;50.922;4.760;2023-07-13T15:34:13;25.70;56.00
20672;DHT22;10495;50.922;4.760;2023-07-13T15:36:39;26.10;56.10
20672;DHT22;10495;50.922;4.760;2023-07-13T15:39:06;26.10;55.20
20672;DHT22;10495;50.922;4.760;2023-07-13T15:41:32;26.20;54.40
20672;DHT22;10495;50.922;4.760;2023-07-13T15:43:58;26.30;54.30
20672;DHT22;10495;50.922;4.760;2023-07-13T15:46:25;26.30;54.50
20672;DHT22;10495;50.922;4.760;2023-07-13T15:48:53;26.10;54.40
20672;DHT22;10495;50.922;4.760;2023-07-13T15:51:27;26.00;55.00
20672;DHT22;10495;50.922;4.760;2023-07-13T15:53:55;26.00;54.50
20672;DHT22;10495;50.922;4.760;2023-07-13T15:56:28;26.10;54.10
20672;DHT22;10495;50.922;4.760;2023-07-13T15:58:54;26.10;54.40
20672;DHT22;10495;50.922;4.760;2023-07-13T16:01:22;26.30;54.10
20672;DHT22;10495;50.922;4.760;2023-07-13T16:03:48;26.10;54.10
20672;DHT22;10495;50.922;4.760;2023-07-13T16:06:23;25.90;54.60
20672;DHT22;10495;50.922;4.760;2023-07-13T16:08:51;25.80;54.20
20672;DHT22;10495;50.922;4.760;2023-07-13T16:11:30;25.80;54.10
20672;DHT22;10495;50.922;4.760;2023-07-13T16:13:58;25.70;53.90
20672;DHT22;10495;50.922;4.760;2023-07-13T16:16:27;25.70;54.10
20672;DHT22;10495;50.922;4.760;2023-07-13T16:18:55;25.70;54.20
20672;DHT22;10495;50.922;4.760;2023-07-13T16:21:23;25.90;53.70
20672;DHT22;10495;50.922;4.760;2023-07-13T16:23:51;25.90;54.00
20672;DHT22;10495;50.922;4.760;2023-07-13T16:26:37;25.70;53.70
20672;DHT22;10495;50.922;4.760;2023-07-13T16:29:19;25.70;54.20
20672;DHT22;10495;50.922;4.760;2023-07-13T16:32:17;25.70;54.50
20672;DHT22;10495;50.922;4.760;2023-07-13T16:34:44;25.80;54.50